Time;durP1;ratioP1;P1;durP2;ratioP2;P2;SDS_P1;SDS_P2;PMS_P1;PMS_P2;Temp;Humidity;BMP_temperature;BMP_pressure;BME280_temperature;BME280_humidity;BME280_pressure;Samples;Min_cycle;Max_cycle;Signal;HPM_P1;HPM_P2
2023/11/08 00:00:08;;;;;;;1.17;1.07;;;;;;;6.52;89.77;100616.81;5017319;28;20777;-70
2023/11/08 00:02:40;;;;;;;2.83;1.00;;;;;;;6.55;88.67;100611.00;5012496;28;21253;-69
2023/11/08 00:05:08;;;;;;;1.33;1.00;;;;;;;6.61;88.94;100625.53;5013117;28;20230;-70
2023/11/08 00:07:34;;;;;;;3.03;1.00;;;;;;;6.66;89.39;100617.56;5016627;28;20203;-69
2023/11/08 00:10:00;;;;;;;4.13;1.20;;;;;;;6.70;89.17;100623.78;5017713;28;20200;-70
2023/11/08 00:12:27;;;;;;;1.23;1.07;;;;;;;6.76;88.88;100624.41;5019841;28;21235;-69
2023/11/08 00:14:56;;;;;;;4.53;1.10;;;;;;;6.81;89.00;100621.66;5016185;28;20620;-70
2023/11/08 00:17:24;;;;;;;1.10;1.00;;;;;;;6.84;88.15;100613.97;5015828;28;20204;-70
2023/11/08 00:19:51;;;;;;;0.80;0.80;;;;;;;6.90;88.71;100618.03;5017724;28;20606;-69
2023/11/08 00:22:17;;;;;;;1.10;1.00;;;;;;;6.95;88.85;100615.25;5016347;28;20200;-70
2023/11/08 00:24:43;;;;;;;1.10;1.00;;;;;;;7.01;88.34;100618.56;5016689;28;20753;-69
2023/11/08 00:27:10;;;;;;;2.63;1.00;;;;;;;7.09;89.81;100613.34;5019640;28;20215;-69
2023/11/08 00:29:36;;;;;;;2.33;0.90;;;;;;;7.20;90.03;100614.63;5017081;28;20208;-70
2023/11/08 00:32:05;;;;;;;0.93;0.87;;;;;;;7.26;89.14;100616.03;5018919;28;20428;-70
2023/11/08 00:34:32;;;;;;;1.73;1.00;;;;;;;7.32;89.08;100614.06;5022445;28;20249;-70
2023/11/08 00:36:59;;;;;;;2.03;0.80;;;;;;;7.38;89.37;100624.16;5020667;28;20299;-70
2023/11/08 00:39:25;;;;;;;1.27;1.17;;;;;;;7.43;88.75;100626.66;5019915;28;20208;-70
2023/11/08 00:41:51;;;;;;;3.20;1.17;;;;;;;7.49;89.16;100614.13;5020314;28;20213;-70
2023/11/08 00:44:18;;;;;;;1.10;1.00;;;;;;;7.55;88.49;100621.59;5022256;28;20230;-71
2023/11/08 00:46:44;;;;;;;1.40;1.30;;;;;;;7.61;88.81;100628.25;5020782;28;20243;-71
2023/11/08 00:49:12;;;;;;;1.33;0.90;;;;;;;7.66;88.38;100636.00;5021532;28;20242;-70
2023/11/08 00:51:39;;;;;;;2.57;1.10;;;;;;;7.69;88.55;100630.16;5018563;28;20215;-69
2023/11/08 00:54:06;;;;;;;1.13;1.03;;;;;;;7.73;88.66;100625.84;5004874;28;20300;-70
2023/11/08 00:56:32;;;;;;;1.90;1.00;;;;;;;7.79;87.89;100629.09;5020855;28;20242;-69
2023/11/08 00:58:59;;;;;;;1.37;1.10;;;;;;;7.82;87.56;100628.50;5019868;28;20212;-70
2023/11/08 01:01:25;;;;;;;1.00;1.00;;;;;;;7.85;87.74;100633.13;5002647;28;20627;-68
2023/11/08 01:03:54;;;;;;;1.50;0.90;;;;;;;7.87;87.20;100629.09;5017081;28;20208;-69
2023/11/08 01:06:23;;;;;;;1.60;1.40;;;;;;;7.87;87.04;100623.84;5019799;28;20238;-70
2023/11/08 01:08:49;;;;;;;1.30;1.10;;;;;;;7.88;87.17;100629.88;5022481;28;20208;-72
2023/11/08 01:11:17;;;;;;;0.87;0.80;;;;;;;7.88;87.17;100625.38;5022950;28;20212;-69
2023/11/08 01:13:45;;;;;;;1.83;0.90;;;;;;;7.87;86.78;100623.84;5018599;28;20213;-69
2023/11/08 01:16:13;;;;;;;0.87;0.87;;;;;;;7.89;87.06;100620.91;5018425;28;20227;-68
2023/11/08 01:18:40;;;;;;;1.67;1.00;;;;;;;7.91;86.35;100624.00;5021095;28;20204;-70
2023/11/08 01:21:06;;;;;;;3.10;1.10;;;;;;;7.92;86.44;100622.94;5019479;28;20210;-70
2023/11/08 01:23:34;;;;;;;1.33;1.00;;;;;;;7.95;86.64;100619.69;5020741;28;20239;-69
2023/11/08 01:26:00;;;;;;;1.07;0.97;;;;;;;7.96;86.29;100618.59;5000986;28;20220;-70
2023/11/08 01:28:30;;;;;;;1.90;1.20;;;;;;;7.99;86.45;100613.53;5019229;28;20250;-70
2023/11/08 01:30:56;;;;;;;1.17;0.97;;;;;;;8.02;86.06;100617.41;5017591;28;20204;-70
2023/11/08 01:33:23;;;;;;;0.97;0.87;;;;;;;8.05;86.02;100609.66;5020895;28;20203;-69
2023/11/08 01:35:50;;;;;;;1.00;0.90;;;;;;;8.08;86.23;100610.91;5000421;28;20691;-68
2023/11/08 01:38:17;;;;;;;4.03;1.00;;;;;;;8.10;85.82;100614.00;5016591;28;20677;-70
2023/11/08 01:40:45;;;;;;;1.23;1.07;;;;;;;8.13;85.71;100611.50;5014126;28;20472;-69
2023/11/08 01:43:26;;;;;;;1.10;1.00;;;;;;;8.16;85.55;100607.50;5014585;28;20220;-70
2023/11/08 01:46:00;;;;;;;1.23;1.00;;;;;;;8.19;85.20;100617.41;5014622;28;20238;-70
2023/11/08 01:48:27;;;;;;;1.53;1.30;;;;;;;8.20;85.76;100616.34;5018994;28;20216;-69
2023/11/08 01:50:53;;;;;;;2.10;1.10;;;;;;;8.21;85.26;100618.69;5020464;28;20201;-70
2023/11/08 01:53:19;;;;;;;1.10;1.00;;;;;;;8.23;85.44;100613.13;5019308;28;20505;-70
2023/11/08 01:55:47;;;;;;;1.50;1.10;;;;;;;8.24;85.10;100610.16;5015274;28;20226;-68
2023/11/08 01:58:14;;;;;;;1.00;0.90;;;;;;;8.27;85.12;100606.94;5002924;28;20221;-70
2023/11/08 02:00:42;;;;;;;0.97;0.83;;;;;;;8.28;85.24;100612.97;5000721;28;20639;-67
2023/11/08 02:03:08;;;;;;;1.50;1.10;;;;;;;8.31;84.54;100614.97;4998257;28;20205;-70
2023/11/08 02:05:35;;;;;;;1.83;0.93;;;;;;;8.31;84.92;100609.72;5019270;28;20604;-70
2023/11/08 02:08:02;;;;;;;2.30;0.80;;;;;;;8.32;84.75;100616.50;5019838;28;20630;-70
2023/11/08 02:10:28;;;;;;;1.17;0.83;;;;;;;8.32;84.83;100606.00;5022445;28;20213;-69
2023/11/08 02:12:58;;;;;;;0.90;0.90;;;;;;;8.33;84.94;100610.19;5002921;28;20572;-70
2023/11/08 02:15:27;;;;;;;1.33;0.80;;;;;;;8.32;84.23;100611.25;5017516;28;20264;-70
2023/11/08 02:17:53;;;;;;;0.73;0.73;;;;;;;8.32;83.93;100606.00;5014501;28;20197;-70
2023/11/08 02:20:19;;;;;;;2.47;0.87;;;;;;;8.30;84.65;100608.16;5016012;28;20299;-70
2023/11/08 02:22:46;;;;;;;1.60;1.00;;;;;;;8.26;84.00;100610.66;5020909;28;20221;-72
2023/11/08 02:25:14;;;;;;;1.00;0.80;;;;;;;8.23;84.73;100624.41;5019231;28;20239;-71
2023/11/08 02:27:45;;;;;;;0.93;0.90;;;;;;;8.20;83.53;100621.63;5016355;28;20205;-71
2023/11/08 02:30:13;;;;;;;3.53;1.17;;;;;;;8.12;83.86;100620.50;5019501;28;20217;-71
2023/11/08 02:32:40;;;;;;;1.43;0.80;;;;;;;8.09;83.92;100620.34;5022440;28;20216;-71
2023/11/08 02:35:06;;;;;;;1.10;0.77;;;;;;;8.03;83.30;100616.31;5020954;28;20312;-71
2023/11/08 02:37:34;;;;;;;1.30;1.10;;;;;;;7.97;84.29;100622.81;5022561;28;20225;-70
2023/11/08 02:40:01;;;;;;;1.00;1.00;;;;;;;7.93;83.96;100617.34;5018806;28;20270;-71
2023/11/08 02:42:29;;;;;;;0.97;0.87;;;;;;;7.87;83.76;100615.19;5016399;28;20752;-70
2023/11/08 02:44:55;;;;;;;1.53;1.00;;;;;;;7.84;84.11;100618.44;5016349;28;20228;-70
2023/11/08 02:47:22;;;;;;;1.10;0.90;;;;;;;7.81;84.88;100622.44;5018947;28;20223;-71
2023/11/08 02:49:49;;;;;;;1.47;0.97;;;;;;;7.79;85.25;100611.47;5017542;28;20770;-71
2023/11/08 02:52:16;;;;;;;1.73;0.90;;;;;;;7.80;84.79;100617.50;5004306;28;20204;-71
2023/11/08 02:54:42;;;;;;;1.10;0.93;;;;;;;7.79;85.42;100613.31;5012769;28;20211;-70
2023/11/08 02:57:09;;;;;;;1.40;1.00;;;;;;;7.78;85.31;100614.41;5016523;28;20297;-71
2023/11/08 02:59:38;;;;;;;1.17;1.03;;;;;;;7.76;84.72;100606.06;5019995;28;20583;-71
2023/11/08 03:02:05;;;;;;;1.30;0.83;;;;;;;7.74;85.09;100598.47;5018097;28;20306;-71
2023/11/08 03:04:32;;;;;;;1.37;1.00;;;;;;;7.71;84.70;100608.81;5017307;28;20199;-71
2023/11/08 03:06:58;;;;;;;1.57;0.80;;;;;;;7.67;84.66;100608.63;5013035;28;20728;-69
2023/11/08 03:09:24;;;;;;;3.03;0.90;;;;;;;7.63;84.81;100607.72;5016789;28;20595;-71
2023/11/08 03:11:51;;;;;;;1.77;1.10;;;;;;;7.59;84.96;100600.72;5014607;28;20232;-70
2023/11/08 03:14:18;;;;;;;1.50;0.80;;;;;;;7.56;84.80;100609.25;5018161;28;20204;-69
2023/11/08 03:16:46;;;;;;;1.17;0.80;;;;;;;7.52;85.63;100610.91;5016326;28;20215;-71
2023/11/08 03:19:12;;;;;;;2.00;0.80;;;;;;;7.49;85.32;100604.41;5021991;28;20204;-71
2023/11/08 03:21:38;;;;;;;1.43;0.80;;;;;;;7.48;85.42;100605.50;5001136;28;20215;-71
2023/11/08 03:24:05;;;;;;;1.27;1.00;;;;;;;7.46;85.14;100605.00;5017966;28;20211;-71
2023/11/08 03:26:33;;;;;;;2.10;0.80;;;;;;;7.47;85.46;100605.81;5017343;28;20235;-69
2023/11/08 03:28:59;;;;;;;2.10;1.00;;;;;;;7.46;85.82;100607.63;5016829;28;20254;-70
2023/11/08 03:31:25;;;;;;;2.27;0.80;;;;;;;7.45;85.94;100607.97;5019047;28;20200;-70
2023/11/08 03:33:53;;;;;;;0.90;0.87;;;;;;;7.45;85.83;100616.59;5018238;28;20582;-71
2023/11/08 03:36:19;;;;;;;2.37;0.87;;;;;;;7.43;85.40;100620.59;5017641;28;20224;-71
2023/11/08 03:38:46;;;;;;;1.20;0.93;;;;;;;7.41;85.30;100612.28;5020137;28;20216;-71
2023/11/08 03:41:12;;;;;;;1.17;1.00;;;;;;;7.40;85.54;100618.59;5017564;28;20204;-71
2023/11/08 03:43:38;;;;;;;1.00;0.90;;;;;;;7.38;85.90;100615.50;5017288;28;20212;-69
2023/11/08 03:46:05;;;;;;;0.87;0.70;;;;;;;7.36;85.83;100615.03;5016874;28;20220;-71
2023/11/08 03:48:31;;;;;;;0.80;0.80;;;;;;;7.36;85.88;100622.91;5018477;28;20262;-71
2023/11/08 03:50:59;;;;;;;1.73;0.90;;;;;;;7.38;85.93;100621.53;5017751;28;20203;-71
2023/11/08 03:53:25;;;;;;;1.53;1.10;;;;;;;7.42;86.40;100625.09;5015638;28;20678;-70
2023/11/08 03:55:52;;;;;;;1.27;1.17;;;;;;;7.46;87.38;100623.41;5016459;28;20224;-71
2023/11/08 03:58:18;;;;;;;2.50;1.03;;;;;;;7.54;87.58;100627.13;5021499;28;20235;-71
2023/11/08 04:00:45;;;;;;;1.47;1.10;;;;;;;7.58;87.88;100631.50;5019021;28;20207;-70
2023/11/08 04:03:11;;;;;;;1.83;1.07;;;;;;;7.64;88.57;100632.91;5016316;28;20196;-70
2023/11/08 04:05:38;;;;;;;1.10;1.00;;;;;;;7.71;88.54;100633.22;5016444;28;20227;-71
2023/11/08 04:08:07;;;;;;;2.33;1.10;;;;;;;7.79;87.70;100631.72;5015714;28;20208;-72
2023/11/08 04:10:33;;;;;;;2.50;1.20;;;;;;;7.82;87.63;100629.25;5016489;28;20196;-70
2023/11/08 04:12:59;;;;;;;2.43;1.20;;;;;;;7.88;87.33;100632.53;5014769;28;20219;-70
2023/11/08 04:15:26;;;;;;;1.20;1.10;;;;;;;7.91;87.30;100632.69;5016595;28;20235;-71
2023/11/08 04:17:52;;;;;;;1.47;1.20;;;;;;;7.96;87.04;100629.91;5016179;28;20685;-71
2023/11/08 04:20:19;;;;;;;4.50;1.10;;;;;;;8.00;87.16;100632.69;5020461;28;20211;-71
2023/11/08 04:22:46;;;;;;;1.70;1.10;;;;;;;8.04;86.57;100629.16;5017049;28;20214;-71
2023/11/08 04:25:15;;;;;;;3.00;1.07;;;;;;;8.09;86.16;100639.53;5018350;28;20236;-71
2023/11/08 04:27:42;;;;;;;1.70;1.20;;;;;;;8.12;85.92;100631.00;5016260;28;20574;-71
2023/11/08 04:30:11;;;;;;;3.67;1.10;;;;;;;8.14;86.17;100634.09;5014545;28;20243;-70
2023/11/08 04:32:37;;;;;;;1.00;0.90;;;;;;;8.17;85.74;100632.72;5018654;28;20259;-71
2023/11/08 04:35:04;;;;;;;3.13;1.30;;;;;;;8.18;85.98;100626.41;5016360;28;20392;-70
2023/11/08 04:37:31;;;;;;;2.30;1.10;;;;;;;8.15;84.78;100621.72;5016965;28;20650;-71
2023/11/08 04:39:57;;;;;;;1.30;1.00;;;;;;;8.15;85.08;100621.72;5016687;28;20250;-70
2023/11/08 04:42:25;;;;;;;2.43;1.10;;;;;;;8.10;84.56;100614.78;5016862;28;20211;-71
2023/11/08 04:44:52;;;;;;;4.23;1.00;;;;;;;8.07;84.74;100614.63;5015628;28;20354;-71
2023/11/08 04:47:19;;;;;;;1.40;0.97;;;;;;;8.07;84.87;100620.63;5016515;28;20260;-72
2023/11/08 04:49:47;;;;;;;1.23;0.90;;;;;;;8.05;85.02;100622.81;5017857;28;20216;-71
2023/11/08 04:52:13;;;;;;;2.30;1.07;;;;;;;8.00;84.30;100624.81;5018145;28;20700;-71
2023/11/08 04:54:40;;;;;;;1.67;1.00;;;;;;;7.95;84.15;100624.94;5012492;28;20692;-69
2023/11/08 04:57:06;;;;;;;3.23;1.30;;;;;;;7.92;84.76;100634.22;5015148;28;20210;-71
2023/11/08 04:59:35;;;;;;;1.83;1.00;;;;;;;7.90;84.44;100627.72;5017827;28;20215;-70
2023/11/08 05:02:02;;;;;;;2.17;0.90;;;;;;;7.86;84.43;100622.31;5018141;28;20607;-71
2023/11/08 05:04:28;;;;;;;3.37;1.00;;;;;;;7.85;84.19;100627.84;5016609;28;20214;-70
2023/11/08 05:06:54;;;;;;;3.50;1.37;;;;;;;7.83;84.31;100633.41;5012982;28;20702;-71
2023/11/08 05:09:21;;;;;;;1.90;1.20;;;;;;;7.80;84.31;100630.63;5016811;28;20213;-71
2023/11/08 05:11:47;;;;;;;4.23;1.17;;;;;;;7.78;84.65;100625.69;5017805;28;20295;-71
2023/11/08 05:14:13;;;;;;;3.30;1.43;;;;;;;7.77;84.49;100636.50;5019538;28;20616;-71
2023/11/08 05:16:41;;;;;;;1.60;0.73;;;;;;;7.73;84.00;100628.47;5019654;28;20274;-72
2023/11/08 05:19:08;;;;;;;1.73;1.00;;;;;;;7.72;83.77;100631.41;5017222;28;20573;-69
2023/11/08 05:21:34;;;;;;;2.47;1.20;;;;;;;7.70;84.16;100634.31;5015860;28;20219;-71
2023/11/08 05:24:00;;;;;;;3.33;1.17;;;;;;;7.68;84.63;100625.19;5017547;28;20205;-69
2023/11/08 05:26:27;;;;;;;1.93;1.07;;;;;;;7.67;84.11;100626.28;5019782;28;20840;-71
2023/11/08 05:28:53;;;;;;;2.00;1.00;;;;;;;7.67;83.87;100626.28;5022630;28;20254;-70
2023/11/08 05:31:21;;;;;;;2.67;1.00;;;;;;;7.65;83.68;100626.56;5021872;28;20208;-72
2023/11/08 05:33:49;;;;;;;8.07;1.20;;;;;;;7.63;84.22;100625.31;5021864;28;20204;-71
2023/11/08 05:36:16;;;;;;;2.70;1.37;;;;;;;7.60;84.79;100623.28;5018943;28;20265;-71
2023/11/08 05:38:43;;;;;;;2.97;1.43;;;;;;;7.57;84.55;100619.41;5021864;28;20208;-72
2023/11/08 05:41:10;;;;;;;2.67;1.07;;;;;;;7.56;84.00;100622.38;5020318;28;20196;-72
2023/11/08 05:43:37;;;;;;;6.60;1.20;;;;;;;7.51;83.62;100633.03;5022081;28;20677;-71
2023/11/08 05:46:03;;;;;;;2.13;0.90;;;;;;;7.47;84.06;100632.84;5022255;28;20688;-71
2023/11/08 05:48:30;;;;;;;3.80;1.07;;;;;;;7.44;83.78;100635.28;5022996;28;20211;-69
2023/11/08 05:50:59;;;;;;;4.87;1.00;;;;;;;7.46;84.29;100635.78;5023327;28;20207;-69
2023/11/08 05:53:25;;;;;;;2.97;1.23;;;;;;;7.46;83.96;100635.78;5022643;28;20247;-69
2023/11/08 05:55:52;;;;;;;1.70;0.97;;;;;;;7.45;83.74;100635.00;5019063;28;20228;-72
2023/11/08 05:58:18;;;;;;;1.10;1.00;;;;;;;7.46;84.09;100641.03;5018848;28;20869;-71
2023/11/08 06:00:44;;;;;;;3.03;1.20;;;;;;;7.48;83.96;100637.03;5018983;28;20207;-71
2023/11/08 06:03:11;;;;;;;0.97;0.90;;;;;;;7.50;84.17;100639.34;5014715;28;20216;-70
2023/11/08 06:05:37;;;;;;;2.67;1.50;;;;;;;7.54;84.70;100650.78;5016070;28;20239;-69
2023/11/08 06:08:05;;;;;;;3.37;1.23;;;;;;;7.56;84.44;100646.78;4997501;28;20223;-72
2023/11/08 06:10:34;;;;;;;3.23;1.07;;;;;;;7.62;84.89;100648.19;5003839;28;20266;-71
2023/11/08 06:13:01;;;;;;;2.03;1.17;;;;;;;7.68;84.03;100649.63;5022274;28;20200;-71
2023/11/08 06:15:27;;;;;;;2.83;0.97;;;;;;;7.77;83.31;100653.03;5022532;28;20227;-72
2023/11/08 06:17:53;;;;;;;1.60;1.10;;;;;;;7.82;83.72;100649.50;5020720;28;20208;-70
2023/11/08 06:20:20;;;;;;;2.07;1.17;;;;;;;7.91;83.46;100647.66;5022143;28;20925;-69
2023/11/08 06:22:46;;;;;;;4.07;1.60;;;;;;;7.96;83.52;100664.09;5021607;28;20214;-69
2023/11/08 06:25:14;;;;;;;4.10;1.03;;;;;;;8.01;83.27;100653.44;5020270;28;20231;-69
2023/11/08 06:27:40;;;;;;;2.27;1.73;;;;;;;8.06;82.57;100669.06;5020645;28;20427;-68
2023/11/08 06:30:08;;;;;;;1.10;0.83;;;;;;;8.12;82.15;100659.19;5022293;28;20211;-68
2023/11/08 06:32:34;;;;;;;2.60;1.10;;;;;;;8.15;82.10;100659.34;5020833;28;20219;-67
2023/11/08 06:35:02;;;;;;;2.00;0.93;;;;;;;8.23;83.12;100669.13;5020738;28;20306;-67
2023/11/08 06:37:29;;;;;;;2.27;1.20;;;;;;;8.28;81.17;100674.22;5024740;28;20200;-70
2023/11/08 06:39:55;;;;;;;2.60;1.00;;;;;;;8.32;81.38;100672.53;5011947;28;20220;-69
2023/11/08 06:42:23;;;;;;;3.37;1.50;;;;;;;8.36;82.05;100683.22;5017856;28;20613;-70
2023/11/08 06:44:49;;;;;;;1.37;1.00;;;;;;;8.40;82.52;100678.91;5014470;28;20211;-70
2023/11/08 06:47:16;;;;;;;5.03;1.30;;;;;;;8.43;81.94;100680.94;5012357;28;20320;-69
2023/11/08 06:49:42;;;;;;;4.00;1.30;;;;;;;8.45;82.07;100684.78;5017559;28;20254;-69
2023/11/08 06:52:09;;;;;;;2.37;1.03;;;;;;;8.47;82.25;100680.00;5013014;28;20220;-70
2023/11/08 06:54:35;;;;;;;5.33;1.60;;;;;;;8.50;81.98;100687.25;5014233;28;20213;-71
2023/11/08 06:57:03;;;;;;;1.60;0.90;;;;;;;8.53;83.13;100688.50;4998035;28;20205;-72
2023/11/08 06:59:30;;;;;;;1.90;0.83;;;;;;;8.53;81.83;100684.03;5016888;28;20216;-71
2023/11/08 07:01:57;;;;;;;3.63;0.97;;;;;;;8.55;81.35;100695.00;5016717;28;20821;-71
2023/11/08 07:04:23;;;;;;;1.43;0.87;;;;;;;8.57;81.76;100698.13;5017096;28;20678;-71
2023/11/08 07:06:50;;;;;;;2.30;1.10;;;;;;;8.58;80.59;100698.88;5019018;28;20235;-71
2023/11/08 07:09:17;;;;;;;4.50;1.13;;;;;;;8.60;81.15;100697.47;5019152;28;20387;-70
2023/11/08 07:11:43;;;;;;;5.93;1.10;;;;;;;8.64;80.72;100708.94;5018557;28;20294;-70
2023/11/08 07:14:10;;;;;;;2.70;1.23;;;;;;;8.70;80.79;100704.31;5020624;28;20223;-69
2023/11/08 07:16:37;;;;;;;2.67;1.07;;;;;;;8.74;80.57;100697.34;5020081;28;20257;-69
2023/11/08 07:19:04;;;;;;;1.60;1.03;;;;;;;8.79;80.98;100705.88;5019363;28;20325;-67
2023/11/08 07:21:30;;;;;;;1.57;0.90;;;;;;;8.84;80.14;100704.91;5020029;28;20256;-71
2023/11/08 07:23:57;;;;;;;1.00;0.80;;;;;;;8.88;80.42;100708.50;5021147;28;20415;-70
2023/11/08 07:26:24;;;;;;;2.63;0.93;;;;;;;8.89;80.37;100712.66;5017781;28;20650;-70
2023/11/08 07:28:50;;;;;;;3.40;1.10;;;;;;;8.91;79.21;100705.25;5019569;28;20247;-69
2023/11/08 07:31:16;;;;;;;1.87;0.90;;;;;;;8.94;79.62;100708.03;5019106;28;20216;-71
2023/11/08 07:33:44;;;;;;;1.63;1.03;;;;;;;8.97;79.53;100712.69;5019751;28;20305;-71
2023/11/08 07:36:10;;;;;;;1.17;1.07;;;;;;;8.99;79.83;100712.34;5018093;28;20693;-70
2023/11/08 07:38:37;;;;;;;1.87;0.90;;;;;;;9.03;79.12;100723.81;5017808;28;20313;-70
2023/11/08 07:41:03;;;;;;;3.47;0.70;;;;;;;9.07;79.17;100724.75;5018445;28;20195;-69
2023/11/08 07:43:30;;;;;;;1.37;0.90;;;;;;;9.08;79.49;100716.53;5001923;28;20401;-70
2023/11/08 07:45:57;;;;;;;1.80;1.03;;;;;;;9.11;79.60;100715.16;5013416;28;20235;-70
2023/11/08 07:48:23;;;;;;;2.00;1.10;;;;;;;9.13;79.19;100718.22;5015372;28;20227;-69
2023/11/08 07:50:51;;;;;;;1.30;0.93;;;;;;;9.15;80.07;100726.59;5018280;28;20198;-70
2023/11/08 07:53:19;;;;;;;3.90;1.30;;;;;;;9.15;79.74;100724.75;5018750;28;20756;-70
2023/11/08 07:55:45;;;;;;;3.07;1.03;;;;;;;9.15;78.94;100731.84;5020801;28;20294;-70
2023/11/08 07:58:12;;;;;;;0.90;0.90;;;;;;;9.16;79.11;100728.91;5017418;28;20209;-70
2023/11/08 08:00:39;;;;;;;4.37;1.20;;;;;;;9.18;79.82;100731.25;5018597;28;20215;-69
2023/11/08 08:03:05;;;;;;;1.17;0.80;;;;;;;9.19;79.73;100730.16;5019067;28;20196;-70
2023/11/08 08:05:32;;;;;;;3.23;0.93;;;;;;;9.24;78.92;100736.06;5001521;28;20226;-70
2023/11/08 08:07:59;;;;;;;2.53;1.10;;;;;;;9.29;79.56;100733.25;5017022;28;20231;-69
2023/11/08 08:10:31;;;;;;;1.83;1.20;;;;;;;9.34;79.35;100741.00;5019331;28;20215;-69
2023/11/08 08:12:58;;;;;;;1.00;0.90;;;;;;;9.39;79.56;100734.78;5017388;28;20225;-70
2023/11/08 08:15:24;;;;;;;1.77;0.80;;;;;;;9.44;78.58;100732.75;5015852;28;20228;-68
2023/11/08 08:17:51;;;;;;;0.90;0.90;;;;;;;9.51;78.28;100738.31;5017592;28;20199;-70
2023/11/08 08:20:18;;;;;;;1.53;0.90;;;;;;;9.57;78.81;100736.31;5016365;28;20211;-70
2023/11/08 08:22:44;;;;;;;3.97;0.80;;;;;;;9.62;80.69;100741.41;5014699;28;20253;-70
2023/11/08 08:25:12;;;;;;;1.20;1.00;;;;;;;9.68;78.71;100737.50;5017477;28;20314;-70
2023/11/08 08:27:40;;;;;;;1.73;1.10;;;;;;;9.75;79.43;100738.56;5019502;28;20299;-69
2023/11/08 08:30:10;;;;;;;4.30;1.03;;;;;;;9.83;78.44;100737.75;5018741;28;20204;-70
2023/11/08 08:32:37;;;;;;;1.50;0.77;;;;;;;9.89;79.46;100735.72;5019938;28;20670;-70
2023/11/08 08:35:04;;;;;;;2.43;1.00;;;;;;;9.94;78.94;100741.59;5019687;28;20297;-70
2023/11/08 08:37:32;;;;;;;1.70;0.90;;;;;;;9.98;78.04;100741.72;5017705;28;20295;-70
2023/11/08 08:39:59;;;;;;;1.93;1.30;;;;;;;10.02;77.92;100747.91;5016366;28;20232;-70
2023/11/08 08:42:27;;;;;;;4.00;1.33;;;;;;;10.05;77.61;100744.69;5019131;28;20208;-69
2023/11/08 08:44:53;;;;;;;3.30;1.50;;;;;;;10.07;76.69;100740.63;5020927;28;20238;-71
2023/11/08 08:47:20;;;;;;;1.50;1.10;;;;;;;10.11;77.87;100751.31;5024630;28;20294;-70
2023/11/08 08:49:48;;;;;;;3.47;1.10;;;;;;;10.12;79.29;100740.47;5023360;28;20675;-69
2023/11/08 08:52:14;;;;;;;2.87;1.20;;;;;;;10.15;76.73;100755.63;5026269;28;20199;-70
2023/11/08 08:54:40;;;;;;;1.87;1.03;;;;;;;10.17;76.74;100753.47;5025198;28;20569;-70
2023/11/08 08:57:07;;;;;;;1.63;0.97;;;;;;;10.19;78.11;100758.44;5026785;28;20303;-69
2023/11/08 08:59:34;;;;;;;1.63;1.53;;;;;;;10.22;77.61;100755.16;5026829;28;20281;-69
2023/11/08 09:02:01;;;;;;;3.10;1.17;;;;;;;10.24;77.77;100755.63;5028786;28;20211;-70
2023/11/08 09:04:27;;;;;;;4.23;1.00;;;;;;;10.25;77.84;100754.53;5026541;28;20893;-69
2023/11/08 09:06:54;;;;;;;2.67;0.90;;;;;;;10.26;75.44;100761.34;5021503;28;20235;-70
2023/11/08 09:09:21;;;;;;;1.97;1.03;;;;;;;10.29;75.76;100761.47;5025348;28;20224;-69
2023/11/08 09:11:47;;;;;;;1.53;0.93;;;;;;;10.25;75.60;100760.56;5025835;28;20212;-70
2023/11/08 09:14:15;;;;;;;1.47;0.90;;;;;;;10.24;76.16;100772.22;5026788;28;20200;-71
2023/11/08 09:16:42;;;;;;;5.60;0.90;;;;;;;10.24;76.67;100771.47;5019271;28;20232;-71
2023/11/08 09:19:09;;;;;;;1.33;0.80;;;;;;;10.27;78.23;100768.94;5024400;28;20199;-70
2023/11/08 09:21:35;;;;;;;1.73;1.00;;;;;;;10.33;75.87;100778.22;5021797;28;20208;-70
2023/11/08 09:24:05;;;;;;;0.77;0.70;;;;;;;10.45;75.81;100767.00;5022466;28;20212;-71
2023/11/08 09:26:32;;;;;;;1.43;1.07;;;;;;;10.54;75.73;100765.06;5019733;28;20240;-68
2023/11/08 09:28:59;;;;;;;3.13;1.00;;;;;;;10.64;76.75;100778.69;5022581;28;20265;-69
2023/11/08 09:31:26;;;;;;;4.07;1.83;;;;;;;10.75;76.46;100766.63;5022892;28;20208;-70
2023/11/08 09:33:56;;;;;;;2.17;0.90;;;;;;;10.85;76.22;100770.75;5028351;28;20252;-71
2023/11/08 09:36:23;;;;;;;2.30;0.80;;;;;;;10.92;75.50;100768.38;5026932;28;20326;-70
2023/11/08 09:38:50;;;;;;;4.53;1.20;;;;;;;10.98;74.45;100770.50;5022273;28;20788;-70
2023/11/08 09:41:17;;;;;;;2.50;0.67;;;;;;;11.01;72.55;100774.34;5023434;28;20210;-68
2023/11/08 09:43:45;;;;;;;1.57;0.80;;;;;;;11.04;74.12;100777.16;5024081;28;20207;-70
2023/11/08 09:46:12;;;;;;;2.83;0.90;;;;;;;11.07;73.62;100779.13;5026700;28;20720;-70
2023/11/08 09:48:39;;;;;;;3.03;1.03;;;;;;;11.10;74.29;100775.84;5023737;28;20317;-70
2023/11/08 09:51:07;;;;;;;1.67;1.10;;;;;;;11.14;72.30;100778.63;5009100;28;20211;-70
2023/11/08 09:53:34;;;;;;;2.60;0.90;;;;;;;11.15;73.13;100777.53;5026222;28;20221;-71
2023/11/08 09:56:02;;;;;;;3.63;1.00;;;;;;;11.17;72.89;100776.09;5024624;28;20244;-69
2023/11/08 09:58:31;;;;;;;1.30;0.80;;;;;;;11.20;72.95;100772.81;5028774;28;20237;-70
2023/11/08 10:00:58;;;;;;;0.90;0.60;;;;;;;11.23;72.19;100784.63;5023047;28;20226;-70
2023/11/08 10:03:26;;;;;;;0.70;0.70;;;;;;;11.26;72.39;100768.09;5023901;28;20203;-70
2023/11/08 10:05:52;;;;;;;1.37;0.70;;;;;;;11.26;73.01;100779.44;5023731;28;20221;-69
2023/11/08 10:08:20;;;;;;;3.50;0.87;;;;;;;11.29;72.93;100772.75;5023606;28;20206;-69
2023/11/08 10:10:49;;;;;;;1.43;0.70;;;;;;;11.29;71.05;100768.22;5026610;28;20312;-69
2023/11/08 10:13:15;;;;;;;1.60;0.73;;;;;;;11.33;71.47;100776.28;5030421;28;20217;-70
2023/11/08 10:15:42;;;;;;;2.60;0.80;;;;;;;11.35;70.88;100771.44;5021199;28;20316;-68
2023/11/08 10:18:10;;;;;;;1.47;0.80;;;;;;;11.37;72.15;100771.88;5027984;28;20210;-70
2023/11/08 10:20:37;;;;;;;2.70;1.03;;;;;;;11.39;70.52;100777.63;5025347;28;20237;-69
2023/11/08 10:23:04;;;;;;;0.93;0.67;;;;;;;11.44;71.58;100766.84;5031565;28;20222;-70
2023/11/08 10:25:32;;;;;;;0.63;0.60;;;;;;;11.47;72.75;100774.13;5022101;28;20561;-69
2023/11/08 10:28:03;;;;;;;2.23;0.70;;;;;;;11.51;70.92;100767.88;5023088;28;20667;-71
2023/11/08 10:30:32;;;;;;;0.90;0.80;;;;;;;11.60;71.61;100770.44;5025869;28;20253;-70
2023/11/08 10:33:07;;;;;;;0.70;0.70;;;;;;;11.64;71.08;100758.88;5023718;28;20218;-70
2023/11/08 10:35:37;;;;;;;1.43;0.90;;;;;;;11.69;69.99;100766.59;5019693;28;20230;-71
2023/11/08 10:38:05;;;;;;;2.63;0.80;;;;;;;11.76;72.46;100766.06;5019264;28;20298;-72
2023/11/08 10:40:33;;;;;;;0.57;0.57;;;;;;;11.78;70.06;100769.16;5018459;28;20216;-69
2023/11/08 10:43:02;;;;;;;3.57;0.90;;;;;;;11.79;70.52;100768.03;5021242;28;20210;-69
2023/11/08 10:45:29;;;;;;;1.33;0.63;;;;;;;11.82;71.05;100762.09;5019778;28;20317;-70
2023/11/08 10:47:56;;;;;;;1.13;0.77;;;;;;;11.85;70.20;100759.56;5025003;28;20214;-70
2023/11/08 10:50:23;;;;;;;1.93;0.90;;;;;;;11.86;69.97;100768.28;5025093;28;20634;-72
2023/11/08 10:52:49;;;;;;;1.37;0.70;;;;;;;11.90;71.11;100766.53;5025058;28;20673;-69
2023/11/08 10:55:16;;;;;;;2.00;0.90;;;;;;;11.92;70.01;100759.03;5022733;28;20239;-68
2023/11/08 10:57:52;;;;;;;1.37;0.80;;;;;;;11.91;70.14;100762.78;5022489;28;20215;-68
2023/11/08 11:00:20;;;;;;;1.63;1.03;;;;;;;11.93;70.51;100757.94;5025679;28;20214;-70
2023/11/08 11:02:53;;;;;;;2.63;0.80;;;;;;;11.95;70.30;100763.69;5024766;28;20196;-70
2023/11/08 11:05:22;;;;;;;2.20;0.80;;;;;;;11.94;69.40;100762.91;5027752;28;20471;-71
2023/11/08 11:07:50;;;;;;;1.87;1.00;;;;;;;11.93;68.84;100764.00;5024239;28;20204;-68
2023/11/08 11:10:17;;;;;;;1.63;0.73;;;;;;;11.93;71.38;100768.50;5022781;28;20208;-70
2023/11/08 11:12:57;;;;;;;6.47;3.10;;;;;;;11.92;69.32;100773.06;5023179;28;20235;-69
2023/11/08 11:15:40;;;;;;;36.83;16.80;;;;;;;11.92;68.49;100767.75;5021487;28;20223;-70
2023/11/08 11:18:14;;;;;;;7.43;3.30;;;;;;;11.93;68.83;100764.00;5020397;28;20235;-70
2023/11/08 11:20:46;;;;;;;5.43;2.97;;;;;;;11.96;69.18;100767.88;5024373;28;20226;-70
2023/11/08 11:23:32;;;;;;;1.97;1.10;;;;;;;11.98;71.11;100758.50;5025921;28;20222;-69
2023/11/08 11:25:59;;;;;;;3.00;1.10;;;;;;;11.98;68.78;100765.66;5022356;28;20246;-70
2023/11/08 11:28:52;;;;;;;1.50;0.70;;;;;;;12.00;68.45;100766.88;5022636;28;20713;-70
2023/11/08 11:31:32;;;;;;;0.70;0.70;;;;;;;11.99;69.21;100760.03;5023438;28;20291;-70